createdAt,value
2023-04-18T00:01:03.743Z,23.57
2023-04-18T00:04:04.953Z,24.23
2023-04-18T00:07:05.751Z,24.13
2023-04-18T00:10:06.796Z,23.67
2023-04-18T00:13:07.737Z,23.92
2023-04-18T00:16:08.843Z,24.14
2023-04-18T00:19:10.735Z,24.02
2023-04-18T00:22:11.857Z,23.76
2023-04-18T00:25:12.734Z,23.77
2023-04-18T00:28:13.776Z,23.67
2023-04-18T00:31:15.845Z,24.00
2023-04-18T00:34:17.793Z,23.82
2023-04-18T00:37:20.760Z,23.93
2023-04-18T00:40:21.820Z,24.03
2023-04-18T00:43:22.730Z,23.78
2023-04-18T00:46:23.812Z,23.51
2023-04-18T00:49:24.754Z,24.16
2023-04-18T00:52:25.788Z,24.14
2023-04-18T00:55:26.728Z,23.99
2023-04-18T00:58:27.769Z,23.91
2023-04-18T01:01:28.764Z,23.10
2023-04-18T01:04:30.833Z,23.25
2023-04-18T01:07:31.744Z,23.81
2023-04-18T01:10:32.773Z,23.85
2023-04-18T01:13:33.730Z,23.85
2023-04-18T01:16:34.769Z,23.66
2023-04-18T01:19:35.715Z,23.56
2023-04-18T01:22:36.922Z,23.81
2023-04-18T01:25:37.728Z,23.84
2023-04-18T01:28:38.807Z,24.00
2023-04-18T01:31:39.765Z,23.78
2023-04-18T01:34:42.765Z,23.49
2023-04-18T01:37:44.719Z,23.44
2023-04-18T01:40:45.816Z,23.98
2023-04-18T01:43:46.746Z,24.08
2023-04-18T01:46:47.841Z,24.03
2023-04-18T01:49:52.708Z,24.04
2023-04-18T01:52:55.792Z,24.18
2023-04-18T01:55:56.706Z,24.12
2023-04-18T01:58:57.808Z,24.19
2023-04-18T02:01:58.776Z,24.00
2023-04-18T02:04:59.756Z,24.16
2023-04-18T02:08:00.733Z,24.27
2023-04-18T02:11:01.747Z,23.55
2023-04-18T02:14:02.766Z,24.11
2023-04-18T02:17:03.776Z,24.16
2023-04-18T02:20:04.767Z,23.83
2023-04-18T02:23:05.827Z,23.84
2023-04-18T02:26:06.755Z,24.22
2023-04-18T02:29:07.772Z,24.12
2023-04-18T02:32:08.812Z,23.72
2023-04-18T02:35:11.769Z,24.17
2023-04-18T02:38:15.745Z,23.87
2023-04-18T02:41:21.787Z,24.19
2023-04-18T02:44:23.736Z,24.11
2023-04-18T02:47:24.780Z,24.18
2023-04-18T02:50:25.721Z,23.79
2023-04-18T02:53:26.778Z,23.70
2023-04-18T02:56:30.695Z,23.97
2023-04-18T02:59:46.775Z,23.75
2023-04-18T03:02:47.811Z,23.99
2023-04-18T03:05:59.785Z,23.79
2023-04-18T03:09:01.725Z,23.60
2023-04-18T03:12:06.778Z,24.03
2023-04-18T03:15:08.716Z,23.90
2023-04-18T03:18:09.780Z,23.75
2023-04-18T03:21:10.683Z,23.64
2023-04-18T03:24:12.322Z,23.98
2023-04-18T03:27:16.716Z,23.66
2023-04-18T03:30:17.804Z,24.11
2023-04-18T03:33:23.700Z,24.11
2023-04-18T03:36:35.756Z,23.79
2023-04-18T03:39:38.741Z,23.65
2023-04-18T03:42:39.748Z,23.76
2023-04-18T03:45:40.768Z,24.15
2023-04-18T03:48:43.752Z,23.94
2023-04-18T03:51:46.728Z,23.80
2023-04-18T03:54:47.750Z,24.14
2023-04-18T03:57:52.759Z,23.98
2023-04-18T04:00:56.758Z,23.90
2023-04-18T04:03:57.805Z,24.21
2023-04-18T04:06:58.723Z,24.09
2023-04-18T04:09:59.755Z,24.32
2023-04-18T04:13:00.768Z,24.30
2023-04-18T04:16:04.830Z,24.40
2023-04-18T04:19:05.746Z,24.16
2023-04-18T04:22:13.718Z,24.04
2023-04-18T04:25:14.808Z,24.18
2023-04-18T04:28:15.728Z,23.93
2023-04-18T04:31:22.810Z,24.14
2023-04-18T04:34:24.688Z,24.00
2023-04-18T04:37:27.771Z,23.94
2023-04-18T04:40:38.682Z,24.07
2023-04-18T04:43:40.767Z,24.00
2023-04-18T04:46:46.702Z,24.06
2023-04-18T04:49:51.732Z,23.63
2023-04-18T04:52:53.744Z,23.93
2023-04-18T04:55:54.765Z,23.76
2023-04-18T04:58:55.692Z,23.51
2023-04-18T05:02:01.815Z,23.97
2023-04-18T05:05:03.709Z,23.83
2023-04-18T05:08:04.910Z,24.35
2023-04-18T05:11:05.688Z,24.18
2023-04-18T05:14:06.747Z,23.53
2023-04-18T05:17:08.787Z,24.15
2023-04-18T05:20:09.766Z,24.20
2023-04-18T05:23:10.700Z,24.06
2023-04-18T05:26:12.056Z,24.01
2023-04-18T05:29:12.706Z,23.90
2023-04-18T05:32:13.757Z,23.77
2023-04-18T05:35:14.707Z,23.82
2023-04-18T05:38:15.726Z,23.95
2023-04-18T05:41:16.723Z,24.02
2023-04-18T05:44:18.098Z,23.65
2023-04-18T05:47:18.722Z,24.03
2023-04-18T05:50:19.751Z,23.81
2023-04-18T05:53:20.697Z,23.55
2023-04-18T05:56:21.728Z,23.89
2023-04-18T05:59:22.680Z,23.79
2023-04-18T06:02:23.875Z,24.16
2023-04-18T06:05:24.896Z,23.71
2023-04-18T06:08:25.773Z,23.84
2023-04-18T06:11:27.686Z,24.09
2023-04-18T06:14:28.787Z,23.90
2023-04-18T06:17:29.748Z,23.87
2023-04-18T06:20:30.775Z,23.73
2023-04-18T06:23:31.674Z,23.67
2023-04-18T06:26:32.868Z,23.85
2023-04-18T06:29:37.944Z,23.68
2023-04-18T06:32:38.818Z,24.12
2023-04-18T06:35:39.706Z,24.35
2023-04-18T06:38:40.703Z,23.83
2023-04-18T06:41:41.692Z,23.75
2023-04-18T06:44:53.715Z,23.80
2023-04-18T06:47:54.747Z,24.11
2023-04-18T06:50:55.761Z,24.11
2023-04-18T06:53:59.689Z,24.17
2023-04-18T06:57:00.730Z,24.39
2023-04-18T07:00:01.721Z,23.62
2023-04-18T07:03:03.011Z,23.90
2023-04-18T07:06:03.702Z,23.77
2023-04-18T07:09:07.750Z,23.86
2023-04-18T07:12:08.695Z,23.98
2023-04-18T07:15:10.717Z,23.71
2023-04-18T07:18:12.473Z,24.21
2023-04-18T07:21:16.717Z,23.80
2023-04-18T07:24:17.668Z,24.12
2023-04-18T07:27:18.974Z,23.95
2023-04-18T07:30:19.659Z,24.30
2023-04-18T07:33:20.738Z,24.36
2023-04-18T07:36:21.680Z,24.32
2023-04-18T07:39:22.732Z,24.24
2023-04-18T07:42:23.730Z,24.40
2023-04-18T07:45:24.739Z,24.25
2023-04-18T07:48:25.710Z,24.22
2023-04-18T07:51:26.733Z,24.28
2023-04-18T07:54:27.722Z,23.67
2023-04-18T07:57:28.733Z,23.75
2023-04-18T08:00:32.824Z,24.01
2023-04-18T08:03:33.814Z,24.13
2023-04-18T08:06:27.851Z,24.03
2023-04-18T08:09:23.715Z,24.38
2023-04-18T08:12:24.675Z,23.94
2023-04-18T08:15:25.694Z,23.67
2023-04-18T08:18:26.803Z,23.98
2023-04-18T08:21:27.722Z,23.92
2023-04-18T08:24:28.689Z,24.17
2023-04-18T08:27:29.761Z,23.54
2023-04-18T08:30:30.680Z,24.29
2023-04-18T08:33:31.735Z,23.75
2023-04-18T08:36:32.714Z,23.89
2023-04-18T08:39:33.717Z,23.71
2023-04-18T08:42:35.688Z,24.32
2023-04-18T08:45:39.465Z,24.02
2023-04-18T08:48:40.646Z,24.07
2023-04-18T08:51:42.744Z,23.51
2023-04-18T08:54:44.692Z,23.64
2023-04-18T08:57:46.751Z,24.08
2023-04-18T09:00:47.668Z,24.15
2023-04-18T09:03:49.768Z,24.02
2023-04-18T09:07:05.708Z,24.15
2023-04-18T09:10:06.719Z,23.94
2023-04-18T09:13:07.677Z,24.14
2023-04-18T09:16:08.747Z,24.38
2023-04-18T09:19:28.650Z,24.05
2023-04-18T09:22:29.759Z,23.74
2023-04-18T09:25:48.672Z,23.49
2023-04-18T09:28:50.823Z,23.89
2023-04-18T09:32:09.664Z,23.55
2023-04-18T09:35:11.706Z,24.08
2023-04-18T09:38:12.675Z,23.85
2023-04-18T09:41:23.764Z,24.05
2023-04-18T09:44:24.677Z,24.18
2023-04-18T09:47:25.755Z,23.99
2023-04-18T09:50:27.712Z,23.97
2023-04-18T09:53:32.001Z,23.87
2023-04-18T09:56:38.655Z,23.93
2023-04-18T09:59:50.819Z,24.20
2023-04-18T10:03:00.725Z,23.96
2023-04-18T10:06:01.706Z,24.60
2023-04-18T10:08:57.780Z,23.77
2023-04-18T10:11:51.726Z,23.75
2023-04-18T10:14:55.668Z,23.79
2023-04-18T10:18:08.717Z,23.84
2023-04-18T10:21:15.680Z,23.81
2023-04-18T10:24:16.704Z,23.83
2023-04-18T10:27:17.710Z,23.60
2023-04-18T10:30:18.783Z,23.80
2023-04-18T10:33:42.720Z,23.71
2023-04-18T10:36:43.689Z,23.15
2023-04-18T10:39:44.673Z,23.69
2023-04-18T10:43:08.689Z,23.55
2023-04-18T10:46:31.889Z,23.82
2023-04-18T10:49:39.688Z,23.11
2023-04-18T10:52:40.653Z,23.96
2023-04-18T10:55:44.680Z,23.62
2023-04-18T10:58:45.643Z,23.67
2023-04-18T11:01:49.735Z,23.42
2023-04-18T11:04:50.630Z,23.47
2023-04-18T11:07:57.708Z,23.93
2023-04-18T11:11:06.969Z,23.58
2023-04-18T11:14:04.806Z,23.41
2023-04-18T11:17:05.637Z,23.71
2023-04-18T11:20:19.750Z,23.75
2023-04-18T11:23:30.667Z,23.69
2023-04-18T11:26:31.723Z,23.18
2023-04-18T11:29:32.662Z,23.93
2023-04-18T11:32:35.833Z,23.72
2023-04-18T11:35:36.652Z,23.39
2023-04-18T11:38:41.725Z,23.77
2023-04-18T11:41:42.638Z,23.61
2023-04-18T11:44:46.679Z,22.66
2023-04-18T11:47:48.672Z,24.13
2023-04-18T11:50:49.687Z,24.06
2023-04-18T11:53:51.630Z,24.40
2023-04-18T11:57:00.666Z,24.09
2023-04-18T12:00:04.632Z,23.97
2023-04-18T12:03:05.949Z,23.88
2023-04-18T12:06:12.809Z,23.83
2023-04-18T12:09:13.682Z,23.67
2023-04-18T12:12:07.729Z,23.03
2023-04-18T12:15:07.861Z,23.46
2023-04-18T12:18:15.674Z,23.57
2023-04-18T12:21:18.667Z,23.48
2023-04-18T12:24:30.673Z,23.43
2023-04-18T12:27:31.680Z,22.84
2023-04-18T12:30:33.382Z,23.67
2023-04-18T12:33:34.957Z,23.25
2023-04-18T12:36:35.632Z,23.95
2023-04-18T12:39:36.699Z,23.00
2023-04-18T12:42:37.629Z,23.40
2023-04-18T12:45:38.681Z,23.49
2023-04-18T12:48:39.622Z,23.42
2023-04-18T12:51:40.756Z,22.80
2023-04-18T12:54:41.636Z,23.29
2023-04-18T12:57:44.707Z,23.21
2023-04-18T13:00:46.699Z,23.28
2023-04-18T13:03:56.506Z,22.59
2023-04-18T13:07:04.630Z,22.84
2023-04-18T13:10:05.683Z,22.51
2023-04-18T13:12:59.781Z,23.12
2023-04-18T13:15:53.672Z,23.37
2023-04-18T13:18:54.634Z,23.28
2023-04-18T13:21:55.660Z,23.80
2023-04-18T13:24:56.636Z,23.93
2023-04-18T13:27:57.667Z,23.47
2023-04-18T13:30:58.661Z,23.06
2023-04-18T13:33:59.823Z,23.01
2023-04-18T13:37:00.650Z,23.09
2023-04-18T13:40:01.659Z,22.84
2023-04-18T13:43:02.646Z,23.47
2023-04-18T13:46:03.696Z,23.19
2023-04-18T13:49:04.675Z,23.42
2023-04-18T13:52:05.684Z,23.70
2023-04-18T13:55:06.635Z,24.12
2023-04-18T13:58:09.628Z,22.31
2023-04-18T14:01:10.642Z,23.39
2023-04-18T14:04:11.835Z,23.17
2023-04-18T14:07:15.611Z,23.39
2023-04-18T14:10:16.681Z,24.15
2023-04-18T14:13:17.609Z,23.80
2023-04-18T14:16:19.803Z,23.98
2023-04-18T14:19:20.621Z,23.84
2023-04-18T14:22:21.728Z,23.24
2023-04-18T14:25:23.604Z,23.42
2023-04-18T14:28:25.672Z,22.81
2023-04-18T14:31:26.665Z,23.78
2023-04-18T14:34:27.830Z,24.32
2023-04-18T14:37:28.612Z,23.09
2023-04-18T14:40:32.080Z,23.38
2023-04-18T14:43:33.635Z,23.08
2023-04-18T14:46:34.673Z,23.81
2023-04-18T14:49:35.638Z,23.64
2023-04-18T14:52:36.710Z,23.46
2023-04-18T14:55:37.619Z,23.41
2023-04-18T14:58:39.650Z,23.46
2023-04-18T15:01:40.670Z,23.10
2023-04-18T15:04:41.787Z,23.42
2023-04-18T15:07:44.630Z,23.18
2023-04-18T15:10:45.645Z,22.69
2023-04-18T15:13:46.625Z,22.93
2023-04-18T15:16:47.718Z,22.84
2023-04-18T15:19:48.648Z,23.92
2023-04-18T15:22:49.652Z,23.80
2023-04-18T15:25:50.595Z,23.62
2023-04-18T15:28:51.643Z,23.84
2023-04-18T15:31:53.704Z,23.73
2023-04-18T15:34:54.816Z,23.07
2023-04-18T15:37:55.598Z,23.57
2023-04-18T15:40:56.653Z,23.69
2023-04-18T15:43:57.620Z,23.24
2023-04-18T15:46:58.700Z,23.47
2023-04-18T15:49:59.630Z,23.60
2023-04-18T15:53:00.776Z,23.98
2023-04-18T15:56:01.605Z,23.39
2023-04-18T15:59:02.690Z,23.38
2023-04-18T16:02:03.655Z,23.28
2023-04-18T16:05:04.627Z,23.46
2023-04-18T16:08:05.614Z,23.73
2023-04-18T16:11:06.631Z,23.18
2023-04-18T16:14:08.678Z,23.61
2023-04-18T16:17:09.662Z,23.35
2023-04-18T16:20:10.631Z,22.97
2023-04-18T16:23:11.656Z,23.19
2023-04-18T16:26:12.618Z,23.48
2023-04-18T16:29:13.654Z,22.99
2023-04-18T16:32:14.640Z,22.96
2023-04-18T16:35:17.003Z,23.43
2023-04-18T16:38:17.625Z,23.56
2023-04-18T16:41:18.649Z,24.10
2023-04-18T16:44:19.625Z,22.94
2023-04-18T16:47:20.779Z,23.62
2023-04-18T16:50:21.598Z,23.06
2023-04-18T16:53:22.670Z,23.48
2023-04-18T16:56:23.623Z,24.36
2023-04-18T16:59:24.662Z,23.97
2023-04-18T17:02:25.737Z,23.41
2023-04-18T17:05:26.672Z,24.00
2023-04-18T17:08:27.607Z,23.98
2023-04-18T17:11:28.648Z,24.48
2023-04-18T17:14:29.606Z,23.79
2023-04-18T17:17:30.776Z,24.15
2023-04-18T17:20:31.611Z,23.80
2023-04-18T17:23:33.201Z,23.15
2023-04-18T17:26:34.639Z,23.22
2023-04-18T17:29:35.725Z,23.41
2023-04-18T17:32:36.647Z,23.42
2023-04-18T17:35:37.713Z,23.54
2023-04-18T17:38:38.613Z,23.25
2023-04-18T17:41:39.584Z,24.01
2023-04-18T17:44:40.595Z,23.77
2023-04-18T17:47:41.643Z,23.00
2023-04-18T17:50:44.615Z,23.03
2023-04-18T17:53:45.652Z,23.03
2023-04-18T17:56:46.613Z,23.37
2023-04-18T17:59:47.652Z,23.21
2023-04-18T18:02:49.816Z,23.87
2023-04-18T18:05:50.633Z,23.00
2023-04-18T18:08:51.591Z,23.39
2023-04-18T18:11:55.363Z,22.13
2023-04-18T18:14:56.577Z,23.09
2023-04-18T18:17:57.679Z,23.29
2023-04-18T18:20:58.609Z,23.23
2023-04-18T18:23:59.666Z,23.10
2023-04-18T18:27:00.622Z,23.19
2023-04-18T18:30:01.768Z,22.56
2023-04-18T18:33:02.637Z,22.60
2023-04-18T18:36:03.720Z,23.15
2023-04-18T18:39:04.603Z,22.77
2023-04-18T18:42:05.641Z,23.35
2023-04-18T18:45:07.617Z,23.36
2023-04-18T18:48:10.709Z,23.02
2023-04-18T18:51:11.608Z,23.38
2023-04-18T18:54:12.626Z,22.71
2023-04-18T18:57:13.600Z,23.10
2023-04-18T19:00:17.631Z,22.52
2023-04-18T19:03:18.816Z,22.95
2023-04-18T19:06:19.605Z,23.17
2023-04-18T19:09:20.578Z,22.67
2023-04-18T19:12:21.643Z,22.21
2023-04-18T19:15:22.597Z,22.47
2023-04-18T19:18:24.621Z,22.84
2023-04-18T19:21:26.590Z,21.81
2023-04-18T19:24:27.622Z,22.85
2023-04-18T19:27:28.600Z,22.27
2023-04-18T19:30:29.626Z,22.31
2023-04-18T19:33:31.606Z,22.93
2023-04-18T19:36:32.844Z,23.26
2023-04-18T19:39:33.572Z,21.07
2023-04-18T19:42:34.604Z,22.85
2023-04-18T19:45:35.600Z,22.74
2023-04-18T19:48:36.614Z,22.73
2023-04-18T19:51:37.574Z,21.71
2023-04-18T19:54:39.631Z,23.08
2023-04-18T19:57:42.566Z,22.58
2023-04-18T20:00:43.628Z,23.00
2023-04-18T20:03:44.721Z,22.81
2023-04-18T20:06:45.616Z,22.95
2023-04-18T20:09:46.585Z,22.02
2023-04-18T20:12:49.500Z,23.13
2023-04-18T20:15:50.611Z,22.61
2023-04-18T20:18:55.065Z,21.80
2023-04-18T20:21:48.882Z,22.19
2023-04-18T20:24:42.603Z,22.65
2023-04-18T20:27:43.591Z,22.13
2023-04-18T20:30:44.689Z,22.08
2023-04-18T20:33:45.563Z,21.94
2023-04-18T20:36:47.795Z,22.32
2023-04-18T20:39:48.563Z,23.57
2023-04-18T20:42:49.598Z,22.52
2023-04-18T20:45:50.643Z,22.36
2023-04-18T20:48:51.616Z,22.42
2023-04-18T20:51:52.592Z,22.77
2023-04-18T20:54:53.608Z,22.67
2023-04-18T20:57:54.535Z,22.51
2023-04-18T21:00:55.651Z,22.37
2023-04-18T21:03:56.647Z,21.57
2023-04-18T21:06:57.617Z,22.83
2023-04-18T21:09:58.542Z,22.80
2023-04-18T21:12:59.628Z,22.28
2023-04-18T21:16:00.612Z,22.54
2023-04-18T21:19:01.620Z,22.45
2023-04-18T21:22:02.571Z,22.35
2023-04-18T21:25:03.644Z,22.27
2023-04-18T21:28:04.576Z,22.36
2023-04-18T21:31:05.649Z,23.33
2023-04-18T21:34:07.560Z,23.02
2023-04-18T21:37:08.823Z,21.24
2023-04-18T21:40:09.551Z,21.97
2023-04-18T21:43:10.568Z,22.46
2023-04-18T21:46:11.591Z,21.76
2023-04-18T21:49:12.586Z,22.32
2023-04-18T21:52:14.567Z,21.91
2023-04-18T21:55:15.599Z,22.40
2023-04-18T21:58:16.591Z,22.98
2023-04-18T22:01:17.673Z,21.77
2023-04-18T22:04:18.889Z,22.54
2023-04-18T22:07:19.595Z,22.08
2023-04-18T22:10:20.602Z,22.35
2023-04-18T22:13:21.589Z,21.57
2023-04-18T22:16:22.643Z,22.28
2023-04-18T22:19:23.599Z,22.91
2023-04-18T22:22:24.544Z,22.70
2023-04-18T22:25:25.653Z,22.04
2023-04-18T22:28:26.558Z,22.37
2023-04-18T22:31:27.717Z,21.85
2023-04-18T22:34:28.567Z,21.96
2023-04-18T22:37:29.788Z,20.42
2023-04-18T22:40:30.526Z,21.07
2023-04-18T22:43:31.612Z,22.69
2023-04-18T22:46:32.583Z,21.79
2023-04-18T22:49:34.595Z,22.23
2023-04-18T22:52:36.558Z,21.95
2023-04-18T22:55:37.602Z,22.04
2023-04-18T22:58:38.560Z,22.67
2023-04-18T23:01:39.638Z,21.66
2023-04-18T23:04:40.729Z,22.05
2023-04-18T23:07:41.589Z,22.55
2023-04-18T23:10:42.597Z,21.88
2023-04-18T23:13:43.598Z,22.15
2023-04-18T23:16:44.580Z,22.17
2023-04-18T23:19:45.603Z,22.35
2023-04-18T23:22:46.583Z,21.84
2023-04-18T23:25:47.579Z,22.36
2023-04-18T23:28:48.634Z,22.10
2023-04-18T23:31:49.715Z,22.87
2023-04-18T23:34:50.569Z,22.73
2023-04-18T23:37:51.818Z,21.77
2023-04-18T23:40:52.528Z,22.34
2023-04-18T23:43:53.612Z,22.57
2023-04-18T23:46:54.603Z,21.79
2023-04-18T23:49:55.602Z,22.58
2023-04-18T23:52:56.538Z,22.03
2023-04-18T23:55:57.596Z,21.82
2023-04-18T23:58:58.563Z,22.64
